Time;durP1;ratioP1;P1;durP2;ratioP2;P2;SDS_P1;SDS_P2;PMS_P1;PMS_P2;Temp;Humidity;BMP_temperature;BMP_pressure;BME280_temperature;BME280_humidity;BME280_pressure;Samples;Min_cycle;Max_cycle;Signal;HPM_P1;HPM_P2
2023/12/03 00:00:34;;;;;;;82.70;29.40;;;;;;;0.75;100.00;101923.44;5209636;28;20037;-71
2023/12/03 00:03:04;;;;;;;84.28;28.55;;;;;;;0.76;100.00;101922.50;5215022;28;20060;-71
2023/12/03 00:05:36;;;;;;;75.85;27.88;;;;;;;0.76;100.00;101926.94;5213781;28;20033;-71
2023/12/03 00:08:07;;;;;;;76.15;27.02;;;;;;;0.76;100.00;101921.66;5210505;28;20028;-71
2023/12/03 00:10:38;;;;;;;76.50;28.02;;;;;;;0.77;100.00;101918.94;5210242;28;20078;-72
2023/12/03 00:13:08;;;;;;;79.38;26.70;;;;;;;0.75;100.00;101923.44;5209614;28;20029;-71
2023/12/03 00:15:39;;;;;;;74.55;24.98;;;;;;;0.70;100.00;101917.53;5208878;28;20033;-71
2023/12/03 00:18:09;;;;;;;78.55;27.63;;;;;;;0.62;100.00;101922.34;5213506;28;20021;-71
2023/12/03 00:20:40;;;;;;;79.03;25.15;;;;;;;0.55;100.00;101926.19;5211091;28;20052;-71
2023/12/03 00:23:10;;;;;;;71.43;25.67;;;;;;;0.47;100.00;101928.38;5209939;28;20024;-71
2023/12/03 00:25:41;;;;;;;85.03;27.95;;;;;;;0.40;100.00;101921.66;5208457;28;20024;-71
2023/12/03 00:28:11;;;;;;;78.15;27.75;;;;;;;0.36;100.00;101930.69;5210959;28;20063;-71
2023/12/03 00:30:42;;;;;;;86.50;28.70;;;;;;;0.31;100.00;101922.13;5210450;28;20028;-71
2023/12/03 00:33:12;;;;;;;70.60;25.33;;;;;;;0.25;100.00;101929.44;5213110;28;20032;-71
2023/12/03 00:35:43;;;;;;;83.55;29.05;;;;;;;0.21;100.00;101930.50;5210906;28;20045;-71
2023/12/03 00:38:13;;;;;;;73.90;26.30;;;;;;;0.14;100.00;101931.69;5212975;28;20021;-71
2023/12/03 00:40:44;;;;;;;89.07;29.55;;;;;;;0.13;100.00;101934.41;5208178;28;20025;-71
2023/12/03 00:43:14;;;;;;;84.00;28.13;;;;;;;0.19;100.00;101932.34;5211559;28;20930;-71
2023/12/03 00:45:45;;;;;;;81.90;28.48;;;;;;;0.24;100.00;101932.13;5212673;28;20094;-71
2023/12/03 00:48:15;;;;;;;115.88;32.53;;;;;;;0.30;100.00;101936.25;5211098;28;20029;-71
2023/12/03 00:50:46;;;;;;;86.07;29.95;;;;;;;0.29;100.00;101932.75;5211131;28;20033;-71
2023/12/03 00:53:16;;;;;;;82.43;28.98;;;;;;;0.30;100.00;101933.59;5208627;28;20056;-71
2023/12/03 00:55:47;;;;;;;96.40;31.60;;;;;;;0.30;100.00;101934.44;5211171;28;20048;-71
2023/12/03 00:58:17;;;;;;;81.18;27.55;;;;;;;0.29;100.00;101940.66;5213254;28;20442;-71
2023/12/03 01:00:48;;;;;;;82.13;29.52;;;;;;;0.25;100.00;101942.63;5206067;28;20083;-71
2023/12/03 01:03:18;;;;;;;75.38;27.58;;;;;;;0.24;100.00;101945.31;5211933;28;20049;-71
2023/12/03 01:05:49;;;;;;;77.45;27.13;;;;;;;0.17;100.00;101941.25;5211009;28;20035;-71
2023/12/03 01:08:20;;;;;;;72.70;24.38;;;;;;;0.11;100.00;101931.00;5212795;28;20115;-71
2023/12/03 01:10:50;;;;;;;80.70;25.70;;;;;;;0.02;100.00;101932.28;5209669;28;20026;-71
2023/12/03 01:13:21;;;;;;;81.40;27.00;;;;;;;0.00;100.00;101939.44;5205644;28;20039;-71
2023/12/03 01:15:51;;;;;;;80.90;29.10;;;;;;;-0.04;100.00;101936.06;5209879;28;20439;-71
2023/12/03 01:18:22;;;;;;;82.72;28.48;;;;;;;-0.14;100.00;101934.78;5212825;28;20033;-71
2023/12/03 01:20:52;;;;;;;91.28;28.55;;;;;;;-0.19;100.00;101939.41;5210292;28;20396;-71
2023/12/03 01:23:23;;;;;;;78.93;28.35;;;;;;;-0.22;100.00;101939.53;5211279;28;20029;-71
2023/12/03 01:25:53;;;;;;;97.55;29.52;;;;;;;-0.20;100.00;101937.72;5208476;28;20033;-71
2023/12/03 01:28:24;;;;;;;91.40;30.13;;;;;;;-0.17;100.00;101945.47;5208243;28;20067;-71
2023/12/03 01:30:54;;;;;;;86.53;27.33;;;;;;;-0.24;100.00;101948.47;5208451;28;20083;-71
2023/12/03 01:33:25;;;;;;;89.97;29.40;;;;;;;-0.26;100.00;101954.66;5214378;28;20385;-71
2023/12/03 01:35:55;;;;;;;90.80;28.85;;;;;;;-0.31;100.00;101951.38;5206584;28;20099;-71
2023/12/03 01:38:26;;;;;;;82.13;26.23;;;;;;;-0.36;100.00;101957.78;5213953;28;20029;-72
2023/12/03 01:40:56;;;;;;;92.88;29.00;;;;;;;-0.41;100.00;101963.25;5204719;28;20064;-71
2023/12/03 01:43:27;;;;;;;101.50;30.92;;;;;;;-0.42;100.00;101971.25;5208663;28;20040;-71
2023/12/03 01:45:57;;;;;;;96.57;30.27;;;;;;;-0.41;100.00;101965.88;5204216;28;20025;-71
2023/12/03 01:48:28;;;;;;;90.18;29.88;;;;;;;-0.41;100.00;101965.88;5210450;28;20031;-71
2023/12/03 01:50:59;;;;;;;93.80;29.50;;;;;;;-0.44;100.00;101967.81;5209066;28;20075;-71
2023/12/03 01:53:29;;;;;;;95.25;28.80;;;;;;;-0.47;100.00;101965.31;5209533;28;20052;-71
2023/12/03 01:56:01;;;;;;;96.70;29.58;;;;;;;-0.50;100.00;101966.31;5207493;28;20032;-71
2023/12/03 01:58:32;;;;;;;109.72;31.13;;;;;;;-0.50;100.00;101966.31;5212439;28;20028;-71
2023/12/03 02:01:03;;;;;;;108.57;29.73;;;;;;;-0.55;100.00;101968.31;5206512;28;20464;-71
2023/12/03 02:03:34;;;;;;;89.78;28.25;;;;;;;-0.58;100.00;101976.34;5209956;28;20063;-71
2023/12/03 02:06:06;;;;;;;92.85;30.17;;;;;;;-0.58;100.00;101978.97;5211066;28;20033;-71
2023/12/03 02:08:37;;;;;;;104.65;29.92;;;;;;;-0.59;100.00;101977.25;5209595;28;20033;-71
2023/12/03 02:11:08;;;;;;;99.45;29.20;;;;;;;-0.62;100.00;101974.75;5211494;28;20048;-71
2023/12/03 02:13:39;;;;;;;90.03;29.30;;;;;;;-0.63;100.00;101983.59;5208336;28;20435;-71
2023/12/03 02:16:10;;;;;;;90.65;28.73;;;;;;;-0.67;100.00;101977.59;5210830;28;20033;-71
2023/12/03 02:18:40;;;;;;;83.47;26.38;;;;;;;-0.72;100.00;101978.72;5210235;28;20076;-71
2023/12/03 02:21:11;;;;;;;110.55;30.05;;;;;;;-0.74;100.00;101977.94;5209398;28;20095;-71
2023/12/03 02:23:41;;;;;;;110.03;31.65;;;;;;;-0.74;100.00;101981.41;5210277;28;20281;-71
2023/12/03 02:26:12;;;;;;;94.45;29.48;;;;;;;-0.80;100.00;101974.63;5209944;28;20037;-71
2023/12/03 02:28:42;;;;;;;99.22;31.77;;;;;;;-0.83;100.00;101966.00;5209063;28;20419;-71
2023/12/03 02:31:13;;;;;;;102.38;29.35;;;;;;;-0.86;100.00;101974.03;5209286;28;20044;-71
2023/12/03 02:33:55;;;;;;;98.75;28.23;;;;;;;-0.89;100.00;101963.63;5210908;28;20090;-71
2023/12/03 02:36:26;;;;;;;97.60;30.48;;;;;;;-0.94;100.00;101963.81;5209989;28;20037;-71
2023/12/03 02:38:56;;;;;;;104.28;31.42;;;;;;;-0.97;100.00;101961.31;5206770;28;20029;-71
2023/12/03 02:41:27;;;;;;;104.78;31.38;;;;;;;-1.02;100.00;101957.16;5208488;28;20391;-71
2023/12/03 02:43:58;;;;;;;101.10;29.80;;;;;;;-1.07;100.00;101952.09;5207415;28;20538;-71
2023/12/03 02:46:28;;;;;;;93.03;28.85;;;;;;;-1.09;100.00;101961.84;5209148;28;20064;-71
2023/12/03 02:48:59;;;;;;;98.18;30.13;;;;;;;-1.11;100.00;101968.94;5206580;28;20384;-71
2023/12/03 02:51:30;;;;;;;101.03;29.42;;;;;;;-1.13;100.00;101965.50;5211056;28;20111;-71
2023/12/03 02:54:01;;;;;;;92.47;27.45;;;;;;;-1.14;100.00;101962.03;5205518;28;20116;-71
2023/12/03 02:56:31;;;;;;;104.00;28.60;;;;;;;-1.13;100.00;101962.88;5206285;28;20040;-71
2023/12/03 02:59:02;;;;;;;92.47;28.27;;;;;;;-1.13;100.00;101957.63;5199486;28;20420;-71
2023/12/03 03:01:32;;;;;;;96.30;28.73;;;;;;;-1.18;100.00;101954.31;5205577;28;20021;-71
2023/12/03 03:04:03;;;;;;;87.85;27.98;;;;;;;-1.21;100.00;101952.66;5209949;28;20013;-71
2023/12/03 03:06:34;;;;;;;93.57;29.60;;;;;;;-1.23;100.00;101956.28;5213156;28;20025;-71
2023/12/03 03:09:04;;;;;;;89.97;28.13;;;;;;;-1.25;100.00;101958.13;5211183;28;20488;-71
2023/12/03 03:11:35;;;;;;;87.53;25.40;;;;;;;-1.32;100.00;101955.72;5215282;28;20025;-71
2023/12/03 03:14:06;;;;;;;94.32;26.75;;;;;;;-1.34;100.00;101962.00;5210415;28;20116;-71
2023/12/03 03:16:36;;;;;;;82.72;27.27;;;;;;;-1.41;100.00;101964.00;5214516;28;20025;-71
2023/12/03 03:19:07;;;;;;;83.65;27.27;;;;;;;-1.49;100.00;101963.47;5209754;28;20033;-71
2023/12/03 03:21:38;;;;;;;82.47;25.30;;;;;;;-1.54;100.00;101964.59;5212919;28;20026;-71
2023/12/03 03:24:09;;;;;;;95.68;28.27;;;;;;;-1.60;100.00;101961.28;5213832;28;20100;-71
2023/12/03 03:26:39;;;;;;;85.40;26.38;;;;;;;-1.63;100.00;101963.16;5211326;28;20024;-71
2023/12/03 03:29:14;;;;;;;84.90;27.23;;;;;;;-1.65;100.00;101970.28;5214260;28;20032;-71
2023/12/03 03:31:45;;;;;;;86.50;27.17;;;;;;;-1.70;100.00;101964.34;5212579;28;20024;-71
2023/12/03 03:34:16;;;;;;;87.18;26.60;;;;;;;-1.77;100.00;101966.31;5213959;28;20094;-71
2023/12/03 03:36:46;;;;;;;90.47;25.75;;;;;;;-1.82;100.00;101963.88;5199865;28;20033;-71
2023/12/03 03:39:17;;;;;;;84.88;26.73;;;;;;;-1.87;100.00;101965.81;5202898;28;20040;-71
2023/12/03 03:41:47;;;;;;;99.55;27.45;;;;;;;-1.86;100.00;101962.31;5202523;28;20485;-71
2023/12/03 03:44:18;;;;;;;87.53;25.75;;;;;;;-1.85;100.00;101958.75;5203595;28;20029;-71
2023/12/03 03:46:48;;;;;;;89.57;25.48;;;;;;;-1.85;100.00;101964.00;5209452;28;20029;-70
2023/12/03 03:49:19;;;;;;;89.82;26.80;;;;;;;-1.87;100.00;101962.34;5201530;28;20029;-71
2023/12/03 03:51:50;;;;;;;95.50;28.10;;;;;;;-1.88;100.00;101964.13;5202347;28;20032;-71
2023/12/03 03:54:20;;;;;;;94.60;28.35;;;;;;;-1.86;100.00;101958.78;5201991;28;20076;-71
2023/12/03 03:56:50;;;;;;;103.88;29.90;;;;;;;-1.80;100.00;101957.72;5200532;28;20083;-71
2023/12/03 03:59:21;;;;;;;123.88;32.78;;;;;;;-1.74;100.00;101968.84;5206955;28;20029;-71
2023/12/03 04:01:52;;;;;;;114.70;30.77;;;;;;;-1.75;100.00;101972.41;5205278;28;20029;-71
2023/12/03 04:04:22;;;;;;;121.40;32.83;;;;;;;-1.74;100.00;101965.38;5206924;28;20036;-71
2023/12/03 04:06:53;;;;;;;100.90;29.27;;;;;;;-1.77;100.00;101973.38;5207783;28;20030;-71
2023/12/03 04:09:23;;;;;;;113.10;31.38;;;;;;;-1.77;100.00;101974.22;5204485;28;20094;-71
2023/12/03 04:11:54;;;;;;;105.93;29.50;;;;;;;-1.75;100.00;101971.56;5206717;28;20017;-71
2023/12/03 04:14:25;;;;;;;101.13;29.20;;;;;;;-1.71;100.00;101976.59;5207214;28;20029;-71
2023/12/03 04:16:58;;;;;;;116.25;31.17;;;;;;;-1.68;100.00;101980.91;5218575;28;20022;-71
2023/12/03 04:19:29;;;;;;;99.97;28.23;;;;;;;-1.71;100.00;101973.13;5212038;28;20032;-71
2023/12/03 04:21:59;;;;;;;107.57;30.85;;;;;;;-1.73;100.00;101975.81;5203829;28;20021;-70
2023/12/03 04:24:30;;;;;;;100.97;28.70;;;;;;;-1.77;100.00;101973.38;5203675;28;20017;-71
2023/12/03 04:27:01;;;;;;;98.68;27.10;;;;;;;-1.86;100.00;101970.19;5208447;28;20472;-70
2023/12/03 04:29:31;;;;;;;81.72;24.58;;;;;;;-1.93;100.00;101967.84;5203916;28;20079;-71
2023/12/03 04:32:02;;;;;;;94.05;27.35;;;;;;;-1.97;100.00;101982.03;5206581;28;20087;-70
2023/12/03 04:34:33;;;;;;;88.93;25.95;;;;;;;-2.03;100.00;101971.75;5210534;28;20036;-71
2023/12/03 04:37:03;;;;;;;94.25;27.83;;;;;;;-2.09;100.00;101972.84;5207477;28;20029;-70
2023/12/03 04:39:35;;;;;;;105.95;28.95;;;;;;;-2.11;100.00;101974.66;5207122;28;20495;-70
2023/12/03 04:42:06;;;;;;;94.75;25.55;;;;;;;-2.15;100.00;101979.19;5207484;28;20025;-70
2023/12/03 04:44:37;;;;;;;87.82;25.58;;;;;;;-2.21;100.00;101976.78;5207204;28;20018;-71
2023/12/03 04:47:07;;;;;;;81.97;26.90;;;;;;;-2.24;100.00;101982.16;5203787;28;20079;-71
2023/12/03 04:49:38;;;;;;;78.20;24.10;;;;;;;-2.28;100.00;101983.16;5211364;28;20032;-71
2023/12/03 04:52:09;;;;;;;97.85;26.23;;;;;;;-2.32;100.00;101980.72;5207789;28;20025;-70
2023/12/03 04:54:39;;;;;;;84.35;25.80;;;;;;;-2.34;100.00;101983.41;5205438;28;20396;-70
2023/12/03 04:57:10;;;;;;;104.30;27.80;;;;;;;-2.35;100.00;101979.06;5202095;28;20055;-71
2023/12/03 04:59:40;;;;;;;85.20;24.73;;;;;;;-2.40;100.00;101973.13;5209468;28;20024;-71
2023/12/03 05:02:11;;;;;;;83.90;25.70;;;;;;;-2.42;100.00;101983.66;5209675;28;20029;-71
2023/12/03 05:04:41;;;;;;;82.00;24.83;;;;;;;-2.42;100.00;101985.44;5204892;28;20032;-70
2023/12/03 05:07:12;;;;;;;90.60;24.73;;;;;;;-2.45;100.00;101983.78;5204817;28;20036;-71
2023/12/03 05:09:42;;;;;;;95.78;26.63;;;;;;;-2.47;100.00;101982.97;5208446;28;20380;-71
2023/12/03 05:12:13;;;;;;;100.07;26.75;;;;;;;-2.45;100.00;101991.69;5195118;28;20567;-70
2023/12/03 05:14:44;;;;;;;106.82;28.02;;;;;;;-2.42;100.00;101995.94;5206607;28;20021;-70
2023/12/03 05:17:14;;;;;;;109.93;28.80;;;;;;;-2.39;100.00;101993.22;5202988;28;20036;-71
2023/12/03 05:19:45;;;;;;;117.30;31.83;;;;;;;-2.30;100.00;101992.03;5205528;28;20044;-71
2023/12/03 05:22:15;;;;;;;122.00;30.73;;;;;;;-2.21;100.00;101995.19;5204111;28;20207;-71
2023/12/03 05:24:48;;;;;;;134.80;32.72;;;;;;;-2.15;100.00;102000.22;5200882;28;20017;-71
2023/12/03 05:27:18;;;;;;;123.82;30.98;;;;;;;-2.08;100.00;102006.94;5204402;28;20487;-71
2023/12/03 05:29:49;;;;;;;127.43;31.73;;;;;;;-2.07;100.00;101997.28;5200558;28;20055;-71
2023/12/03 05:32:19;;;;;;;119.53;31.63;;;;;;;-2.06;100.00;102001.63;5205094;28;20587;-71
2023/12/03 05:34:50;;;;;;;114.13;30.35;;;;;;;-2.04;100.00;102001.59;5206444;28;20026;-70
2023/12/03 05:37:20;;;;;;;109.35;29.17;;;;;;;-2.01;100.00;102002.31;5208996;28;20029;-71
2023/12/03 05:39:51;;;;;;;104.30;29.17;;;;;;;-1.98;100.00;101999.56;5200925;28;20033;-70
2023/12/03 05:42:21;;;;;;;115.97;30.50;;;;;;;-1.92;100.00;102004.59;5206143;28;21073;-71
2023/12/03 05:44:52;;;;;;;119.97;31.55;;;;;;;-1.87;100.00;102002.66;5206005;28;20013;-71
2023/12/03 05:47:22;;;;;;;111.50;30.27;;;;;;;-1.79;100.00;102009.41;5207179;28;20028;-71
2023/12/03 05:49:53;;;;;;;121.18;32.47;;;;;;;-1.72;100.00;102000.34;5199635;28;20032;-71
2023/12/03 05:52:23;;;;;;;116.95;31.25;;;;;;;-1.71;100.00;102000.28;5204580;28;20024;-71
2023/12/03 05:54:54;;;;;;;120.20;31.85;;;;;;;-1.72;100.00;101995.09;5199266;28;20021;-71
2023/12/03 05:57:25;;;;;;;121.00;30.80;;;;;;;-1.70;100.00;101995.91;5200575;28;20036;-71
2023/12/03 05:59:55;;;;;;;112.88;30.23;;;;;;;-1.67;100.00;101991.38;5199376;28;20464;-71
2023/12/03 06:02:26;;;;;;;109.53;30.58;;;;;;;-1.64;100.00;101993.03;5204783;28;20029;-71
2023/12/03 06:04:56;;;;;;;110.15;30.10;;;;;;;-1.60;100.00;101992.00;5202893;28;20033;-71
2023/12/03 06:07:27;;;;;;;101.32;29.63;;;;;;;-1.55;100.00;101999.72;5199750;28;20028;-71
2023/12/03 06:09:58;;;;;;;110.05;30.35;;;;;;;-1.53;100.00;102000.50;5206208;28;20017;-71
2023/12/03 06:12:28;;;;;;;106.35;30.85;;;;;;;-1.54;100.00;101997.00;5208136;28;20468;-71
2023/12/03 06:14:59;;;;;;;99.68;28.13;;;;;;;-1.55;100.00;101990.03;5202268;28;20021;-71
2023/12/03 06:17:30;;;;;;;102.43;29.08;;;;;;;-1.51;100.00;101996.88;5199771;28;20517;-71
2023/12/03 06:20:01;;;;;;;92.63;28.45;;;;;;;-1.48;100.00;101994.13;5199826;28;20116;-71
2023/12/03 06:22:32;;;;;;;96.53;29.40;;;;;;;-1.42;100.00;101993.88;5202111;28;20384;-71
2023/12/03 06:25:02;;;;;;;85.47;27.25;;;;;;;-1.40;100.00;101980.69;5204009;28;20013;-71
2023/12/03 06:27:33;;;;;;;96.72;28.15;;;;;;;-1.33;100.00;101987.41;5209151;28;20415;-71
2023/12/03 06:30:05;;;;;;;105.30;26.33;;;;;;;-1.33;100.00;101990.88;5206650;28;20021;-71
2023/12/03 06:32:36;;;;;;;86.97;26.02;;;;;;;-1.35;100.00;101987.47;5205248;28;20029;-71
2023/12/03 06:35:06;;;;;;;100.63;25.35;;;;;;;-1.34;100.00;101993.59;5203258;28;20035;-71
2023/12/03 06:37:37;;;;;;;85.03;26.17;;;;;;;-1.33;100.00;101993.53;5202729;28;20498;-71
2023/12/03 06:40:08;;;;;;;88.28;25.90;;;;;;;-1.34;100.00;101990.97;5206381;28;20024;-71
2023/12/03 06:42:39;;;;;;;83.70;23.60;;;;;;;-1.31;100.00;101989.06;5205592;28;20037;-71
2023/12/03 06:45:11;;;;;;;80.75;23.25;;;;;;;-1.22;100.00;102000.13;5207752;28;20079;-71
2023/12/03 06:47:41;;;;;;;74.70;22.27;;;;;;;-1.18;100.00;101992.03;5203629;28;20033;-71
2023/12/03 06:50:12;;;;;;;86.65;22.95;;;;;;;-1.14;100.00;101998.91;5213830;28;20464;-71
2023/12/03 06:52:42;;;;;;;83.00;23.50;;;;;;;-1.13;100.00;102000.59;5210777;28;20065;-71
2023/12/03 06:55:13;;;;;;;73.45;22.30;;;;;;;-1.08;100.00;102001.28;5207749;28;20025;-71
2023/12/03 06:57:43;;;;;;;73.45;22.48;;;;;;;-1.09;100.00;101990.81;5205576;28;20377;-71
2023/12/03 07:00:14;;;;;;;81.20;22.73;;;;;;;-1.07;100.00;101994.22;5207342;28;20071;-71
2023/12/03 07:02:45;;;;;;;71.47;22.90;;;;;;;-1.02;100.00;101983.50;5209674;28;20030;-71
2023/12/03 07:05:16;;;;;;;76.45;22.13;;;;;;;-1.00;100.00;101998.34;5208229;28;20108;-71
2023/12/03 07:07:48;;;;;;;68.10;21.45;;;;;;;-0.98;100.00;101995.63;5207105;28;20030;-71
2023/12/03 07:10:19;;;;;;;70.43;21.23;;;;;;;-0.93;100.00;101991.03;5210628;28;20029;-71
2023/12/03 07:12:49;;;;;;;64.00;21.65;;;;;;;-0.92;100.00;101992.72;5207051;28;20025;-71
2023/12/03 07:15:20;;;;;;;67.70;20.92;;;;;;;-0.94;100.00;101992.81;5208646;28;20025;-71
2023/12/03 07:17:50;;;;;;;69.97;22.23;;;;;;;-0.93;100.00;101997.16;5211399;28;20025;-71
2023/12/03 07:20:21;;;;;;;66.30;19.45;;;;;;;-0.88;100.00;102003.06;5212094;28;20459;-71
2023/12/03 07:22:51;;;;;;;73.68;19.95;;;;;;;-0.83;100.00;102001.09;5204435;28;20021;-71
2023/12/03 07:25:22;;;;;;;64.75;21.23;;;;;;;-0.80;100.00;102006.25;5210159;28;20021;-71
2023/12/03 07:27:53;;;;;;;65.82;20.38;;;;;;;-0.75;100.00;102005.19;5206191;28;20021;-70
2023/12/03 07:30:24;;;;;;;60.50;18.98;;;;;;;-0.79;100.00;102013.22;5208182;28;20376;-71
2023/12/03 07:32:55;;;;;;;60.45;19.58;;;;;;;-0.79;100.00;101996.56;5211249;28;20104;-71
2023/12/03 07:35:25;;;;;;;64.88;19.85;;;;;;;-0.73;100.00;102003.34;5206821;28;20506;-71
2023/12/03 07:37:56;;;;;;;59.35;18.60;;;;;;;-0.64;100.00;102003.81;5207262;28;20040;-71
2023/12/03 07:40:26;;;;;;;62.28;19.73;;;;;;;-0.58;100.00;102007.97;5206960;28;20487;-71
2023/12/03 07:42:58;;;;;;;56.50;18.15;;;;;;;-0.55;100.00;102013.97;5207299;28;20018;-71
2023/12/03 07:45:29;;;;;;;57.60;18.40;;;;;;;-0.54;100.00;102022.72;5209993;28;20033;-71
2023/12/03 07:47:59;;;;;;;48.53;18.08;;;;;;;-0.63;100.00;102009.94;5207554;28;20026;-71
2023/12/03 07:50:30;;;;;;;59.70;20.05;;;;;;;-0.52;100.00;102012.97;5205363;28;20029;-71
2023/12/03 07:53:00;;;;;;;54.05;17.20;;;;;;;-0.42;100.00;102022.19;5205645;28;20022;-71
2023/12/03 07:55:30;;;;;;;54.03;17.45;;;;;;;-0.32;100.00;102017.38;5211281;28;20391;-71
2023/12/03 07:58:01;;;;;;;51.25;17.15;;;;;;;-0.31;100.00;102014.66;5210895;28;20017;-71
2023/12/03 08:00:31;;;;;;;52.20;17.30;;;;;;;-0.31;100.00;102019.94;5209105;28;20020;-71
2023/12/03 08:03:02;;;;;;;52.63;18.17;;;;;;;-0.23;100.00;102030.16;5207903;28;20438;-71
2023/12/03 08:05:33;;;;;;;53.22;17.85;;;;;;;-0.22;100.00;102016.03;5207722;28;20020;-71
2023/12/03 08:08:03;;;;;;;52.75;17.95;;;;;;;-0.20;100.00;102037.06;5208077;28;20032;-71
2023/12/03 08:10:34;;;;;;;50.67;16.58;;;;;;;-0.11;100.00;102034.88;5210607;28;20391;-71
2023/12/03 08:13:04;;;;;;;50.95;18.02;;;;;;;-0.10;100.00;102030.44;5205609;28;20021;-71
2023/12/03 08:15:35;;;;;;;53.53;16.45;;;;;;;-0.08;100.00;102032.09;5206640;28;20014;-71
2023/12/03 08:18:05;;;;;;;48.13;17.05;;;;;;;-0.17;100.00;102029.88;5211013;28;20033;-71
2023/12/03 08:20:36;;;;;;;46.85;15.50;;;;;;;-0.10;100.00;102027.81;5211151;28;20040;-71
2023/12/03 08:23:06;;;;;;;46.20;16.67;;;;;;;0.01;100.00;102030.84;5209802;28;20029;-71
2023/12/03 08:25:37;;;;;;;44.05;16.50;;;;;;;-0.08;100.00;102036.53;5203530;28;20396;-71
2023/12/03 08:28:07;;;;;;;50.05;17.33;;;;;;;0.06;100.00;102033.28;5208982;28;20030;-71
2023/12/03 08:30:39;;;;;;;45.20;16.92;;;;;;;0.00;100.00;102029.13;5206615;28;20040;-71
2023/12/03 08:33:09;;;;;;;45.10;16.02;;;;;;;0.05;100.00;102040.34;5212778;28;20033;-71
2023/12/03 08:35:41;;;;;;;49.92;16.50;;;;;;;-0.01;100.00;102033.53;5207259;28;20032;-71
2023/12/03 08:38:11;;;;;;;40.85;14.95;;;;;;;0.04;100.00;102032.47;5207906;28;20026;-71
2023/12/03 08:40:42;;;;;;;45.78;15.30;;;;;;;0.06;100.00;102043.81;5208361;28;20032;-71
2023/12/03 08:43:12;;;;;;;45.92;15.15;;;;;;;0.11;100.00;102041.84;5205855;28;20051;-71
2023/12/03 08:45:43;;;;;;;41.55;14.98;;;;;;;0.19;100.00;102042.31;5206776;28;20083;-71
2023/12/03 08:48:14;;;;;;;45.22;15.90;;;;;;;0.22;100.00;102040.41;5209111;28;20061;-71
2023/12/03 08:50:44;;;;;;;45.78;14.98;;;;;;;0.24;100.00;102049.09;5208117;28;20151;-71
2023/12/03 08:53:15;;;;;;;43.95;15.95;;;;;;;0.20;100.00;102047.56;5210703;28;20049;-71
2023/12/03 08:55:45;;;;;;;48.80;15.27;;;;;;;0.30;100.00;102050.59;5212369;28;20102;-71
2023/12/03 08:58:15;;;;;;;38.75;13.70;;;;;;;0.34;100.00;102038.97;5205218;28;20039;-71
2023/12/03 09:00:46;;;;;;;47.92;15.82;;;;;;;0.32;100.00;102040.00;5204563;28;20071;-71
2023/12/03 09:03:16;;;;;;;51.08;15.60;;;;;;;0.28;100.00;102038.41;5208436;28;20405;-71
2023/12/03 09:05:47;;;;;;;46.58;15.10;;;;;;;0.33;100.00;102046.97;5206027;28;20026;-71
2023/12/03 09:08:17;;;;;;;48.63;15.27;;;;;;;0.39;100.00;102038.75;5208204;28;20029;-71
2023/12/03 09:10:48;;;;;;;46.10;14.65;;;;;;;0.45;100.00;102043.75;5201244;28;20131;-71
2023/12/03 09:13:19;;;;;;;43.17;14.95;;;;;;;0.45;100.00;102027.91;5204138;28;20021;-71
2023/12/03 09:15:50;;;;;;;37.50;14.02;;;;;;;0.43;100.00;102028.00;5207637;28;20028;-71
2023/12/03 09:18:21;;;;;;;38.45;15.05;;;;;;;0.45;100.00;102023.50;5209951;28;20032;-71
2023/12/03 09:20:51;;;;;;;39.30;14.32;;;;;;;0.44;100.00;102021.78;5208942;28;20027;-71
2023/12/03 09:23:22;;;;;;;41.05;13.23;;;;;;;0.44;100.00;102013.84;5207841;28;20471;-71
2023/12/03 09:25:52;;;;;;;40.20;14.02;;;;;;;0.55;100.00;102015.97;5208925;28;20017;-71
2023/12/03 09:28:23;;;;;;;41.78;14.13;;;;;;;0.63;100.00;102018.25;5206497;28;20033;-71
2023/12/03 09:30:54;;;;;;;40.05;14.05;;;;;;;0.62;100.00;102012.13;5209481;28;20021;-71
2023/12/03 09:33:26;;;;;;;44.03;14.50;;;;;;;0.61;100.00;102023.63;5210291;28;20025;-71
2023/12/03 09:35:56;;;;;;;43.53;14.57;;;;;;;0.65;100.00;102026.97;5206328;28;20032;-71
2023/12/03 09:38:27;;;;;;;35.05;12.82;;;;;;;0.74;100.00;102027.38;5211600;28;20032;-71
2023/12/03 09:41:00;;;;;;;36.60;14.15;;;;;;;0.74;100.00;102022.09;5201021;28;20116;-71
2023/12/03 09:43:31;;;;;;;41.85;13.55;;;;;;;0.83;100.00;102014.66;5209769;28;20126;-71
2023/12/03 09:46:05;;;;;;;37.72;13.02;;;;;;;0.86;100.00;102010.09;5210415;28;20061;-71
2023/12/03 09:48:41;;;;;;;47.08;15.63;;;;;;;0.81;100.00;102014.75;5207260;28;20044;-71
2023/12/03 09:51:12;;;;;;;37.88;14.15;;;;;;;0.91;100.00;102010.72;5208781;28;20037;-71
2023/12/03 09:53:44;;;;;;;37.55;13.75;;;;;;;0.91;100.00;102013.38;5211006;28;20199;-72
2023/12/03 09:56:16;;;;;;;41.97;14.20;;;;;;;0.96;100.00;102010.50;5208018;28;20025;-72
2023/12/03 09:58:47;;;;;;;41.08;13.82;;;;;;;0.95;100.00;102006.13;5207113;28;20034;-71
2023/12/03 10:01:22;;;;;;;32.78;12.77;;;;;;;1.00;100.00;102005.00;5206614;28;20025;-71
2023/12/03 10:03:53;;;;;;;44.47;15.70;;;;;;;1.12;100.00;102010.59;5209607;28;20030;-71
2023/12/03 10:06:24;;;;;;;39.15;14.10;;;;;;;1.16;100.00;102013.00;5208701;28;20395;-71
2023/12/03 10:08:55;;;;;;;38.40;14.15;;;;;;;1.12;100.00;102014.06;5204148;28;20033;-72
2023/12/03 10:11:28;;;;;;;43.92;14.40;;;;;;;1.32;100.00;102017.50;5211206;28;20021;-71
2023/12/03 10:14:01;;;;;;;44.35;15.95;;;;;;;1.43;100.00;102023.09;5202799;28;20029;-72
2023/12/03 10:16:33;;;;;;;37.15;14.60;;;;;;;1.44;100.00;102017.72;5207677;28;20438;-71
2023/12/03 10:19:03;;;;;;;39.28;14.02;;;;;;;1.53;100.00;102017.25;5206581;28;20395;-72
2023/12/03 10:21:34;;;;;;;39.53;15.23;;;;;;;1.62;100.00;102018.56;5205988;28;20052;-71
2023/12/03 10:24:05;;;;;;;35.42;13.45;;;;;;;1.64;100.00;102013.19;5210918;28;20465;-72
2023/12/03 10:26:36;;;;;;;35.65;13.35;;;;;;;1.69;100.00;102005.88;5204767;28;20030;-71
2023/12/03 10:29:07;;;;;;;37.38;13.13;;;;;;;1.68;100.00;102002.38;5203785;28;20369;-71
2023/12/03 10:31:37;;;;;;;42.03;13.18;;;;;;;1.79;100.00;101993.84;5198013;28;20032;-71
2023/12/03 10:34:09;;;;;;;37.88;12.80;;;;;;;1.79;100.00;101988.56;5205286;28;20485;-71
2023/12/03 10:36:42;;;;;;;39.75;12.88;;;;;;;1.89;100.00;101981.00;5206065;28;20112;-71
2023/12/03 10:39:17;;;;;;;41.80;15.10;;;;;;;1.86;100.00;101974.09;5203257;28;20500;-72
2023/12/03 10:41:49;;;;;;;33.22;13.15;;;;;;;1.87;100.00;101975.78;5200871;28;20126;-72
2023/12/03 10:44:24;;;;;;;30.67;12.48;;;;;;;1.87;100.00;101972.28;5208933;28;20032;-71
2023/12/03 10:46:57;;;;;;;35.60;12.73;;;;;;;1.92;100.00;101968.47;5197629;28;20061;-71
2023/12/03 10:49:29;;;;;;;32.00;12.18;;;;;;;1.86;100.00;101967.91;5203151;28;20026;-71
2023/12/03 10:52:01;;;;;;;33.47;12.15;;;;;;;1.88;100.00;101974.00;5206510;28;20420;-71
2023/12/03 10:54:32;;;;;;;31.58;11.55;;;;;;;1.69;100.00;101961.75;5207594;28;20473;-71
2023/12/03 10:57:05;;;;;;;34.95;14.02;;;;;;;1.78;100.00;101963.91;5206677;28;20031;-71
2023/12/03 10:59:40;;;;;;;36.25;12.85;;;;;;;1.91;100.00;101964.09;5208234;28;20037;-71
2023/12/03 11:02:12;;;;;;;31.52;11.85;;;;;;;1.94;100.00;101958.63;5209448;28;20028;-71
2023/12/03 11:04:52;;;;;;;39.55;13.63;;;;;;;2.08;100.00;101947.28;5207898;28;20028;-71
2023/12/03 11:07:23;;;;;;;33.78;13.20;;;;;;;2.17;100.00;101951.22;5209666;28;20037;-71
2023/12/03 11:09:54;;;;;;;36.50;13.55;;;;;;;2.17;100.00;101941.50;5205012;28;20030;-71
2023/12/03 11:12:25;;;;;;;35.15;12.65;;;;;;;2.21;100.00;101937.75;5210860;28;20039;-71
2023/12/03 11:14:56;;;;;;;37.60;13.48;;;;;;;2.28;100.00;101933.81;5206001;28;20069;-71
2023/12/03 11:17:41;;;;;;;34.15;12.45;;;;;;;2.18;100.00;101929.97;5203309;28;20029;-71